createdAt,value
2018-06-12T00:00:19.459Z,18.42
2018-06-12T00:02:48.228Z,18.43
2018-06-12T00:05:16.998Z,18.43
2018-06-12T00:07:45.861Z,18.44
2018-06-12T00:10:14.789Z,18.43
2018-06-12T00:12:43.598Z,18.42
2018-06-12T00:15:12.343Z,18.39
2018-06-12T00:17:41.095Z,18.38
2018-06-12T00:20:09.858Z,18.37
2018-06-12T00:22:38.677Z,18.36
2018-06-12T00:25:07.460Z,18.32
2018-06-12T00:27:36.214Z,18.31
2018-06-12T00:30:05.004Z,18.32
2018-06-12T00:32:33.811Z,18.32
2018-06-12T00:35:02.573Z,18.31
2018-06-12T00:37:31.360Z,18.33
2018-06-12T00:40:00.117Z,18.18
2018-06-12T00:42:28.892Z,18.16
2018-06-12T00:44:57.676Z,18.18
2018-06-12T00:47:26.446Z,18.16
2018-06-12T00:49:55.339Z,18.20
2018-06-12T00:52:24.111Z,18.21
2018-06-12T00:54:52.941Z,18.19
2018-06-12T00:57:21.766Z,18.17
2018-06-12T00:59:50.550Z,18.20
2018-06-12T01:02:19.331Z,18.19
2018-06-12T01:04:48.091Z,18.14
2018-06-12T01:07:16.930Z,18.19
2018-06-12T01:09:45.690Z,18.17
2018-06-12T01:12:14.471Z,18.09
2018-06-12T01:14:43.252Z,18.07
2018-06-12T01:17:12.064Z,18.04
2018-06-12T01:19:40.837Z,18.00
2018-06-12T01:22:09.703Z,17.96
2018-06-12T01:24:38.498Z,17.93
2018-06-12T01:27:07.284Z,17.91
2018-06-12T01:29:36.061Z,17.89
2018-06-12T01:32:04.933Z,17.82
2018-06-12T01:34:33.835Z,17.69
2018-06-12T01:37:02.596Z,17.69
2018-06-12T01:39:31.461Z,17.70
2018-06-12T01:42:00.229Z,17.71
2018-06-12T01:44:29.134Z,17.73
2018-06-12T01:46:57.908Z,17.74
2018-06-12T01:49:26.656Z,17.72
2018-06-12T01:51:55.447Z,17.79
2018-06-12T01:54:24.210Z,17.80
2018-06-12T01:56:53.059Z,17.81
2018-06-12T01:59:21.816Z,17.83
2018-06-12T02:01:50.652Z,17.88
2018-06-12T02:04:19.422Z,17.90
2018-06-12T02:06:48.293Z,17.93
2018-06-12T02:09:17.080Z,17.95
2018-06-12T02:11:45.854Z,17.93
2018-06-12T02:14:14.610Z,17.96
2018-06-12T02:16:43.388Z,17.95
2018-06-12T02:19:12.165Z,17.91
2018-06-12T02:21:40.993Z,17.89
2018-06-12T02:24:09.923Z,17.87
2018-06-12T02:26:38.684Z,17.86
2018-06-12T02:29:07.482Z,17.83
2018-06-12T02:31:36.261Z,17.82
2018-06-12T02:34:05.113Z,17.78
2018-06-12T02:36:33.923Z,17.75
2018-06-12T02:39:02.715Z,17.74
2018-06-12T02:41:31.479Z,17.73
2018-06-12T02:44:00.262Z,17.73
2018-06-12T02:46:29.089Z,17.72
2018-06-12T02:48:57.981Z,17.74
2018-06-12T02:51:26.774Z,17.76
2018-06-12T02:53:55.605Z,17.72
2018-06-12T02:56:24.407Z,17.70
2018-06-12T02:58:53.127Z,17.69
2018-06-12T03:01:21.913Z,17.70
2018-06-12T03:03:50.711Z,17.73
2018-06-12T03:06:19.507Z,17.76
2018-06-12T03:08:48.309Z,17.80
2018-06-12T03:11:17.091Z,17.84
2018-06-12T03:13:45.901Z,17.94
2018-06-12T03:16:14.752Z,18.05
2018-06-12T03:18:43.527Z,18.40
2018-06-12T03:21:12.322Z,18.96
2018-06-12T03:23:41.073Z,19.64
2018-06-12T03:26:09.829Z,20.46
2018-06-12T03:28:38.625Z,21.21
2018-06-12T03:31:07.400Z,22.11
2018-06-12T03:33:36.184Z,23.00
2018-06-12T03:36:04.991Z,23.63
2018-06-12T03:38:33.789Z,24.40
2018-06-12T03:41:02.577Z,25.33
2018-06-12T03:43:31.395Z,26.17
2018-06-12T03:46:00.171Z,27.07
2018-06-12T03:48:28.950Z,27.45
2018-06-12T03:50:57.709Z,28.40
2018-06-12T03:53:26.531Z,29.37
2018-06-12T03:55:55.311Z,30.19
2018-06-12T03:58:24.118Z,30.91
2018-06-12T04:00:52.876Z,31.70
2018-06-12T04:03:21.657Z,32.31
2018-06-12T04:05:50.498Z,32.99
2018-06-12T04:08:19.260Z,32.73
2018-06-12T04:10:48.019Z,33.25
2018-06-12T04:13:16.867Z,33.82
2018-06-12T04:15:45.741Z,33.57
2018-06-12T04:18:14.560Z,34.78
2018-06-12T04:20:43.315Z,35.44
2018-06-12T04:23:12.079Z,35.52
2018-06-12T04:25:40.867Z,36.10
2018-06-12T04:28:09.668Z,36.82
2018-06-12T04:30:38.427Z,37.80
2018-06-12T04:33:07.195Z,37.80
2018-06-12T04:35:35.998Z,37.86
2018-06-12T04:38:04.835Z,38.70
2018-06-12T04:40:33.657Z,38.91
2018-06-12T04:43:02.767Z,39.16
2018-06-12T04:45:31.601Z,39.44
2018-06-12T04:48:00.373Z,39.14
2018-06-12T04:50:29.151Z,39.87
2018-06-12T04:52:57.883Z,39.81
2018-06-12T04:55:26.776Z,40.33
2018-06-12T04:57:55.553Z,40.54
2018-06-12T05:00:24.361Z,40.49
2018-06-12T05:02:53.132Z,40.48
2018-06-12T05:05:21.981Z,39.62
2018-06-12T05:07:50.750Z,40.18
2018-06-12T05:10:19.510Z,40.61
2018-06-12T05:12:48.289Z,40.68
2018-06-12T05:15:17.097Z,39.82
2018-06-12T05:17:45.841Z,39.68
2018-06-12T05:20:14.607Z,39.03
2018-06-12T05:22:43.513Z,37.60
2018-06-12T05:25:12.304Z,37.32
2018-06-12T05:27:41.116Z,36.74
2018-06-12T05:30:09.905Z,36.13
2018-06-12T05:32:38.701Z,36.28
2018-06-12T05:35:07.469Z,35.86
2018-06-12T05:37:36.313Z,35.52
2018-06-12T05:40:05.176Z,35.58
2018-06-12T05:42:33.933Z,34.76
2018-06-12T05:45:02.791Z,33.49
2018-06-12T05:47:31.647Z,33.13
2018-06-12T05:50:00.464Z,32.56
2018-06-12T05:52:29.241Z,32.40
2018-06-12T05:54:58.034Z,32.40
2018-06-12T05:57:26.820Z,32.27
2018-06-12T05:59:55.656Z,32.46
2018-06-12T06:02:24.472Z,32.51
2018-06-12T06:04:53.287Z,32.72
2018-06-12T06:07:22.128Z,32.60
2018-06-12T06:16:34.400Z,32.21
2018-06-12T06:19:03.208Z,32.17
2018-06-12T06:21:32.010Z,32.31
2018-06-12T06:24:00.851Z,32.17
2018-06-12T06:26:29.612Z,32.56
2018-06-12T06:28:58.462Z,32.59
2018-06-12T06:31:27.249Z,32.53
2018-06-12T06:33:56.101Z,32.73
2018-06-12T06:36:24.877Z,32.51
2018-06-12T06:38:53.651Z,32.42
2018-06-12T06:41:22.516Z,32.26
2018-06-12T06:43:51.367Z,32.19
2018-06-12T06:46:20.162Z,31.82
2018-06-12T06:48:48.967Z,31.90
2018-06-12T06:51:17.854Z,31.54
2018-06-12T06:53:46.673Z,31.44
2018-06-12T06:56:15.528Z,31.40
2018-06-12T06:58:44.363Z,31.60
2018-06-12T07:01:13.138Z,31.65
2018-06-12T07:03:41.917Z,31.38
2018-06-12T07:06:10.670Z,31.28
2018-06-12T07:08:39.469Z,31.35
2018-06-12T07:11:08.299Z,31.12
2018-06-12T07:13:37.248Z,30.92
2018-06-12T07:16:06.125Z,31.30
2018-06-12T07:18:35.058Z,31.21
2018-06-12T07:21:07.465Z,30.86
2018-06-12T07:23:36.328Z,30.92
2018-06-12T07:26:05.159Z,31.21
2018-06-12T07:28:33.945Z,31.31
2018-06-12T07:31:02.773Z,31.61
2018-06-12T07:33:31.598Z,31.68
2018-06-12T07:36:00.498Z,31.25
2018-06-12T07:38:29.370Z,30.84
2018-06-12T07:40:58.162Z,31.06
2018-06-12T07:43:26.957Z,30.97
2018-06-12T07:45:55.740Z,31.07
2018-06-12T07:48:24.539Z,31.28
2018-06-12T07:50:53.315Z,30.48
2018-06-12T07:53:22.119Z,30.62
2018-06-12T07:55:50.916Z,30.70
2018-06-12T07:58:19.781Z,30.37
2018-06-12T08:00:48.559Z,30.77
2018-06-12T08:03:17.356Z,30.53
2018-06-12T08:05:46.210Z,30.47
2018-06-12T08:08:14.992Z,30.43
2018-06-12T08:10:43.788Z,30.45
2018-06-12T08:13:12.603Z,30.57
2018-06-12T08:15:41.371Z,30.67
2018-06-12T08:18:10.161Z,30.73
2018-06-12T08:20:39.027Z,30.70
2018-06-12T08:23:07.843Z,30.23
2018-06-12T08:25:36.625Z,30.50
2018-06-12T08:28:05.420Z,30.78
2018-06-12T08:30:34.313Z,31.22
2018-06-12T08:33:03.110Z,31.19
2018-06-12T08:35:31.956Z,30.83
2018-06-12T08:38:00.808Z,30.75
2018-06-12T08:40:29.616Z,30.60
2018-06-12T08:42:58.522Z,30.42
2018-06-12T08:45:27.362Z,30.28
2018-06-12T08:47:56.147Z,29.95
2018-06-12T08:50:24.991Z,30.10
2018-06-12T08:52:53.768Z,30.18
2018-06-12T08:55:22.626Z,29.97
2018-06-12T08:57:51.464Z,29.86
2018-06-12T09:00:20.259Z,29.85
2018-06-12T09:02:49.016Z,29.42
2018-06-12T09:05:17.913Z,29.35
2018-06-12T09:07:47.287Z,29.14
2018-06-12T09:10:16.108Z,29.50
2018-06-12T09:12:45.843Z,29.79
2018-06-12T09:15:14.707Z,29.71
2018-06-12T09:17:43.544Z,29.45
2018-06-12T09:20:12.500Z,29.81
2018-06-12T09:22:41.268Z,30.21
2018-06-12T09:25:10.049Z,30.32
2018-06-12T09:27:44.024Z,30.07
2018-06-12T09:30:12.902Z,29.84
2018-06-12T09:32:41.730Z,29.85
2018-06-12T09:35:10.526Z,29.77
2018-06-12T09:37:39.291Z,30.12
2018-06-12T09:40:08.138Z,30.49
2018-06-12T09:42:36.957Z,30.46
2018-06-12T09:45:06.060Z,30.57
2018-06-12T09:47:34.840Z,30.56
2018-06-12T09:50:03.791Z,30.69
2018-06-12T09:52:32.625Z,30.63
2018-06-12T09:55:01.447Z,30.78
2018-06-12T09:57:30.260Z,30.73
2018-06-12T09:59:59.042Z,30.35
2018-06-12T10:02:27.892Z,30.21
2018-06-12T10:04:56.697Z,30.14
2018-06-12T10:07:25.492Z,30.09
2018-06-12T10:09:54.298Z,30.10
2018-06-12T10:12:23.136Z,30.58
2018-06-12T10:14:51.995Z,30.79
2018-06-12T10:17:20.795Z,30.93
2018-06-12T10:19:49.569Z,31.12
2018-06-12T10:22:18.398Z,31.49
2018-06-12T10:24:47.167Z,31.77
2018-06-12T10:27:16.004Z,31.92
2018-06-12T10:29:44.816Z,31.93
2018-06-12T10:32:13.653Z,32.05
2018-06-12T10:34:42.610Z,32.29
2018-06-12T10:37:11.465Z,32.44
2018-06-12T10:39:40.252Z,32.53
2018-06-12T10:42:09.082Z,32.32
2018-06-12T10:44:37.939Z,32.27
2018-06-12T10:47:06.772Z,31.78
2018-06-12T10:49:35.588Z,31.38
2018-06-12T10:52:04.356Z,31.03
2018-06-12T10:54:33.281Z,31.27
2018-06-12T10:57:02.226Z,31.37
2018-06-12T10:59:31.036Z,31.33
2018-06-12T11:01:59.817Z,31.07
2018-06-12T11:04:28.612Z,30.50
2018-06-12T11:06:57.439Z,30.58
2018-06-12T11:09:26.305Z,30.23
2018-06-12T11:11:55.118Z,30.79
2018-06-12T11:14:23.935Z,31.30
2018-06-12T11:16:53.337Z,31.56
2018-06-12T11:19:22.221Z,31.68
2018-06-12T11:21:51.081Z,31.85
2018-06-12T11:24:19.938Z,31.80
2018-06-12T11:26:48.736Z,31.54
2018-06-12T11:29:17.573Z,31.57
2018-06-12T11:31:46.373Z,31.71
2018-06-12T11:34:15.213Z,31.73
2018-06-12T11:36:44.123Z,31.43
2018-06-12T11:39:12.915Z,31.70
2018-06-12T11:41:41.848Z,31.66
2018-06-12T11:44:10.673Z,31.62
2018-06-12T11:46:39.689Z,31.63
2018-06-12T11:49:08.563Z,31.71
2018-06-12T11:51:37.430Z,31.75
2018-06-12T11:54:06.248Z,31.92
2018-06-12T11:56:35.045Z,32.21
2018-06-12T11:59:03.830Z,32.53
2018-06-12T12:01:32.660Z,32.83
2018-06-12T12:04:01.573Z,33.07
2018-06-12T12:06:30.363Z,33.27
2018-06-12T12:08:59.180Z,33.51
2018-06-12T12:11:28.052Z,33.55
2018-06-12T12:13:56.848Z,33.69
2018-06-12T12:16:26.361Z,33.83
2018-06-12T12:18:55.252Z,33.21
2018-06-12T12:21:24.076Z,32.71
2018-06-12T12:23:52.902Z,32.28
2018-06-12T12:26:21.797Z,32.23
2018-06-12T12:28:50.598Z,32.48
2018-06-12T12:31:19.381Z,32.18
2018-06-12T12:33:48.201Z,32.31
2018-06-12T12:36:16.999Z,32.51
2018-06-12T12:38:45.842Z,32.66
2018-06-12T12:41:14.664Z,32.59
2018-06-12T12:43:43.538Z,32.31
2018-06-12T12:46:12.324Z,32.38
2018-06-12T12:48:41.191Z,32.26
2018-06-12T12:51:10.030Z,32.17
2018-06-12T12:53:39.495Z,32.07
2018-06-12T12:56:08.350Z,31.96
2018-06-12T12:58:37.209Z,31.89
2018-06-12T13:01:06.121Z,31.96
2018-06-12T13:03:34.951Z,32.19
2018-06-12T13:06:03.756Z,32.29
2018-06-12T13:08:32.601Z,32.47
2018-06-12T13:11:01.452Z,32.71
2018-06-12T13:13:30.312Z,32.88
2018-06-12T13:15:59.159Z,32.97
2018-06-12T13:18:27.963Z,32.85
2018-06-12T13:20:56.844Z,33.06
2018-06-12T13:23:25.661Z,32.63
2018-06-12T13:25:54.457Z,32.79
2018-06-12T13:28:23.240Z,32.81
2018-06-12T13:30:52.077Z,32.88
2018-06-12T13:33:21.101Z,32.85
2018-06-12T13:35:49.908Z,32.83
2018-06-12T13:38:18.727Z,32.80
2018-06-12T13:40:47.593Z,32.69
2018-06-12T13:43:16.406Z,32.70
2018-06-12T13:45:45.201Z,32.70
2018-06-12T13:48:14.000Z,32.91
2018-06-12T13:50:42.845Z,32.94
2018-06-12T13:53:11.726Z,32.78
2018-06-12T13:55:40.755Z,32.72
2018-06-12T13:58:09.611Z,32.59
2018-06-12T14:00:38.692Z,32.30
2018-06-12T14:03:07.757Z,32.12
2018-06-12T14:05:37.161Z,31.91
2018-06-12T14:08:06.060Z,31.58
2018-06-12T14:10:34.850Z,31.24
2018-06-12T14:13:03.717Z,31.20
2018-06-12T14:15:32.562Z,31.04
2018-06-12T14:18:01.412Z,30.92
2018-06-12T14:20:30.204Z,30.78
2018-06-12T14:22:59.076Z,30.68
2018-06-12T14:25:27.860Z,30.40
2018-06-12T14:27:56.668Z,30.20
2018-06-12T14:30:25.432Z,30.01
2018-06-12T14:32:54.225Z,29.99
2018-06-12T14:35:23.023Z,29.85
2018-06-12T14:37:51.972Z,29.83
2018-06-12T14:40:20.786Z,29.71
2018-06-12T14:42:49.568Z,29.67
2018-06-12T14:45:18.388Z,29.60
2018-06-12T14:47:47.218Z,29.55
2018-06-12T14:50:16.061Z,29.52
2018-06-12T14:52:44.879Z,29.47
2018-06-12T14:55:13.653Z,29.42
2018-06-12T14:57:42.490Z,29.37
2018-06-12T15:00:11.302Z,29.32
2018-06-12T15:02:40.181Z,29.24
2018-06-12T15:05:08.985Z,29.21
2018-06-12T15:07:37.819Z,29.19
2018-06-12T15:10:06.751Z,29.17
2018-06-12T15:12:35.567Z,29.15
2018-06-12T15:15:04.405Z,29.08
2018-06-12T15:17:33.181Z,29.05
2018-06-12T15:20:01.978Z,28.99
2018-06-12T15:22:30.786Z,28.97
2018-06-12T15:24:59.664Z,28.91
2018-06-12T15:27:28.453Z,28.89
2018-06-12T15:29:57.248Z,28.84
2018-06-12T15:32:26.132Z,28.79
2018-06-12T15:34:54.938Z,28.79
2018-06-12T15:37:23.725Z,28.78
2018-06-12T15:39:52.511Z,28.76
2018-06-12T15:42:21.305Z,28.72
2018-06-12T15:44:50.138Z,28.65
2018-06-12T15:47:20.191Z,28.65
2018-06-12T15:49:49.032Z,28.63
2018-06-12T15:52:17.979Z,28.59
2018-06-12T15:54:47.809Z,28.61
2018-06-12T15:57:16.625Z,28.60
2018-06-12T15:59:45.495Z,28.60
2018-06-12T16:02:14.331Z,28.59
2018-06-12T16:04:43.179Z,28.59
2018-06-12T16:07:12.005Z,28.59
2018-06-12T16:09:40.882Z,28.59
2018-06-12T16:12:09.689Z,28.57
2018-06-12T16:14:38.513Z,28.59
2018-06-12T16:17:07.332Z,28.60
2018-06-12T16:19:36.118Z,28.63
2018-06-12T16:22:04.931Z,28.67
2018-06-12T16:24:33.738Z,28.68
2018-06-12T16:27:02.524Z,28.73
2018-06-12T16:29:31.330Z,28.65
2018-06-12T16:32:00.162Z,28.73
2018-06-12T16:34:29.132Z,28.67
2018-06-12T16:36:57.922Z,28.69
2018-06-12T16:39:27.466Z,28.63
2018-06-12T16:41:56.263Z,28.67
2018-06-12T16:44:25.080Z,28.64
2018-06-12T16:46:53.873Z,28.62
2018-06-12T16:49:22.722Z,28.54
2018-06-12T16:51:51.505Z,28.48
2018-06-12T16:54:20.421Z,28.51
2018-06-12T16:56:49.390Z,28.46
2018-06-12T16:59:18.223Z,28.44
2018-06-12T17:01:47.024Z,28.42
2018-06-12T17:04:15.864Z,28.36
2018-06-12T17:06:44.675Z,28.34
2018-06-12T17:09:13.532Z,28.30
2018-06-12T17:11:42.428Z,28.25
2018-06-12T17:14:11.222Z,28.19
2018-06-12T17:16:40.115Z,28.12
2018-06-12T17:19:08.940Z,28.06
2018-06-12T17:21:37.752Z,27.99
2018-06-12T17:24:06.576Z,27.88
2018-06-12T17:26:35.411Z,27.75
2018-06-12T17:29:04.253Z,27.61
2018-06-12T17:31:33.130Z,27.50
2018-06-12T17:34:01.976Z,27.39
2018-06-12T17:36:30.769Z,27.26
2018-06-12T17:38:59.659Z,27.18
2018-06-12T17:41:28.594Z,27.05
2018-06-12T17:43:57.374Z,26.88
2018-06-12T17:46:26.209Z,26.74
2018-06-12T17:48:55.173Z,26.63
2018-06-12T17:51:23.983Z,26.46
2018-06-12T17:53:52.884Z,26.33
2018-06-12T17:56:21.769Z,26.14
2018-06-12T17:58:50.597Z,26.01
2018-06-12T18:01:19.523Z,25.86
2018-06-12T18:03:48.375Z,25.70
2018-06-12T18:06:17.202Z,25.52
2018-06-12T18:08:46.019Z,25.44
2018-06-12T18:11:14.846Z,25.33
2018-06-12T18:13:43.954Z,25.23
2018-06-12T18:16:12.813Z,25.11
2018-06-12T18:18:41.640Z,24.98
2018-06-12T18:21:10.522Z,24.85
2018-06-12T18:23:39.413Z,24.77
2018-06-12T18:26:08.593Z,24.60
2018-06-12T18:28:37.455Z,24.50
2018-06-12T18:31:06.271Z,24.39
2018-06-12T18:33:35.138Z,24.36
2018-06-12T18:36:04.047Z,24.26
2018-06-12T18:38:32.861Z,24.25
2018-06-12T18:41:01.684Z,24.17
2018-06-12T18:43:30.571Z,24.12
2018-06-12T18:45:59.436Z,24.09
2018-06-12T18:48:28.210Z,24.05
2018-06-12T18:50:57.082Z,23.98
2018-06-12T18:53:25.899Z,23.90
2018-06-12T18:55:54.800Z,23.90
2018-06-12T18:58:23.628Z,23.86
2018-06-12T19:00:52.757Z,23.82
2018-06-12T19:03:21.625Z,23.72
2018-06-12T19:05:50.463Z,23.67
2018-06-12T19:08:19.400Z,23.64
2018-06-12T19:10:48.296Z,23.63
2018-06-12T19:13:17.970Z,23.60
2018-06-12T19:15:46.775Z,23.61
2018-06-12T19:18:15.608Z,23.58
2018-06-12T19:20:44.429Z,23.55
2018-06-12T19:23:13.271Z,23.49
2018-06-12T19:25:42.060Z,23.42
2018-06-12T19:28:11.085Z,23.34
2018-06-12T19:30:39.966Z,23.25
2018-06-12T19:33:08.788Z,23.23
2018-06-12T19:35:37.563Z,23.22
2018-06-12T19:38:06.380Z,23.21
2018-06-12T19:40:35.209Z,23.14
2018-06-12T19:43:03.988Z,23.16
2018-06-12T19:45:32.765Z,23.05
2018-06-12T19:48:01.692Z,22.98
2018-06-12T19:50:30.646Z,22.95
2018-06-12T19:52:59.558Z,22.95
2018-06-12T19:55:28.366Z,22.90
2018-06-12T19:57:57.175Z,22.87
2018-06-12T20:00:26.186Z,22.82
2018-06-12T20:02:54.910Z,22.81
2018-06-12T20:05:23.724Z,22.74
2018-06-12T20:07:52.532Z,22.74
2018-06-12T20:10:21.329Z,22.70
2018-06-12T20:12:50.331Z,22.63
2018-06-12T20:15:19.134Z,22.61
2018-06-12T20:17:47.893Z,22.62
2018-06-12T20:20:16.689Z,22.61
2018-06-12T20:22:45.556Z,22.70
2018-06-12T20:25:14.455Z,22.46
2018-06-12T20:27:43.291Z,22.43
2018-06-12T20:30:12.119Z,22.42
2018-06-12T20:32:40.946Z,22.40
2018-06-12T20:35:10.331Z,22.39
2018-06-12T20:37:39.190Z,22.37
2018-06-12T20:40:08.059Z,22.33
2018-06-12T20:42:36.920Z,22.31
2018-06-12T20:45:05.842Z,22.21
2018-06-12T20:47:34.628Z,22.22
2018-06-12T20:50:04.173Z,22.18
2018-06-12T20:52:32.946Z,22.14
2018-06-12T20:55:01.780Z,22.15
2018-06-12T20:57:30.595Z,22.12
2018-06-12T20:59:59.428Z,22.09
2018-06-12T21:02:28.189Z,22.10
2018-06-12T21:04:56.952Z,22.06
2018-06-12T21:07:25.834Z,22.01
2018-06-12T21:09:54.632Z,21.97
2018-06-12T21:12:23.449Z,21.94
2018-06-12T21:14:52.301Z,21.89
2018-06-12T21:17:21.061Z,21.85
2018-06-12T21:19:49.853Z,21.79
2018-06-12T21:22:18.694Z,21.74
2018-06-12T21:24:47.461Z,21.71
2018-06-12T21:27:16.260Z,21.71
2018-06-12T21:29:45.091Z,21.69
2018-06-12T21:32:13.867Z,21.64
2018-06-12T21:34:42.640Z,21.62
2018-06-12T21:37:11.501Z,21.62
2018-06-12T21:39:40.245Z,21.58
2018-06-12T21:42:09.033Z,21.57
2018-06-12T21:44:37.904Z,21.53
2018-06-12T21:47:06.688Z,21.50
2018-06-12T21:49:35.459Z,21.46
2018-06-12T21:52:04.268Z,21.45
2018-06-12T21:54:33.089Z,21.38
2018-06-12T21:57:01.864Z,21.33
2018-06-12T21:59:30.623Z,21.28
2018-06-12T22:01:59.452Z,21.26
2018-06-12T22:04:28.248Z,21.20
2018-06-12T22:06:57.159Z,21.18
2018-06-12T22:09:26.031Z,21.14
2018-06-12T22:11:54.845Z,21.10
2018-06-12T22:14:27.881Z,21.07
2018-06-12T22:16:57.397Z,21.06
2018-06-12T22:19:26.366Z,21.01
2018-06-12T22:21:55.148Z,21.01
2018-06-12T22:24:25.385Z,20.96
2018-06-12T22:26:54.189Z,20.97
2018-06-12T22:29:22.978Z,20.95
2018-06-12T22:31:51.758Z,20.95
2018-06-12T22:34:20.546Z,20.91
2018-06-12T22:36:49.372Z,20.86
2018-06-12T22:39:18.138Z,20.79
2018-06-12T22:41:46.952Z,20.78
2018-06-12T22:44:15.733Z,20.76
2018-06-12T22:46:44.531Z,20.76
2018-06-12T22:49:13.327Z,20.75
2018-06-12T22:51:42.231Z,20.74
2018-06-12T22:54:11.064Z,20.72
2018-06-12T22:56:39.823Z,20.67
2018-06-12T22:59:08.597Z,20.63
2018-06-12T23:01:37.435Z,20.61
2018-06-12T23:04:06.305Z,20.57
2018-06-12T23:06:35.113Z,20.52
2018-06-12T23:09:04.291Z,20.49
2018-06-12T23:11:33.073Z,20.43
2018-06-12T23:14:02.006Z,20.42
2018-06-12T23:16:30.761Z,20.39
2018-06-12T23:18:59.582Z,20.36
2018-06-12T23:21:47.942Z,20.33
2018-06-12T23:24:16.772Z,20.29
2018-06-12T23:26:45.654Z,20.27
2018-06-12T23:29:14.467Z,20.24
2018-06-12T23:31:43.256Z,20.24
2018-06-12T23:34:12.126Z,20.22
2018-06-12T23:36:40.944Z,20.20
2018-06-12T23:39:10.053Z,20.19
2018-06-12T23:41:38.843Z,20.15
2018-06-12T23:44:07.701Z,20.10
2018-06-12T23:46:36.466Z,20.09
2018-06-12T23:49:05.296Z,20.07
2018-06-12T23:51:34.102Z,20.06
2018-06-12T23:54:03.023Z,20.05
2018-06-12T23:56:31.871Z,20.02
2018-06-12T23:59:00.656Z,19.99
